sensor_id;sensor_type;location;lat;lon;timestamp;P1;durP1;ratioP1;P2;durP2;ratioP2
32964;SDS011;19317;48.226;11.686;2023-10-19T00:04:35;17.70;;;15.80;;
32964;SDS011;19317;48.226;11.686;2023-10-19T00:09:26;19.13;;;17.03;;
32964;SDS011;19317;48.226;11.686;2023-10-19T00:14:17;19.07;;;16.63;;
32964;SDS011;19317;48.226;11.686;2023-10-19T00:19:08;19.93;;;17.27;;
32964;SDS011;19317;48.226;11.686;2023-10-19T00:23:59;17.57;;;15.77;;
32964;SDS011;19317;48.226;11.686;2023-10-19T00:28:51;18.53;;;16.17;;
32964;SDS011;19317;48.226;11.686;2023-10-19T00:33:42;18.73;;;16.77;;
32964;SDS011;19317;48.226;11.686;2023-10-19T00:38:36;17.83;;;15.93;;
32964;SDS011;19317;48.226;11.686;2023-10-19T00:43:30;17.87;;;16.07;;
32964;SDS011;19317;48.226;11.686;2023-10-19T00:48:21;19.20;;;15.73;;
32964;SDS011;19317;48.226;11.686;2023-10-19T00:53:12;18.53;;;16.67;;
32964;SDS011;19317;48.226;11.686;2023-10-19T00:58:03;18.10;;;16.13;;
32964;SDS011;19317;48.226;11.686;2023-10-19T01:02:54;18.07;;;16.17;;
32964;SDS011;19317;48.226;11.686;2023-10-19T01:07:44;18.33;;;16.53;;
32964;SDS011;19317;48.226;11.686;2023-10-19T01:12:35;16.47;;;14.73;;
32964;SDS011;19317;48.226;11.686;2023-10-19T01:17:26;17.97;;;16.07;;
32964;SDS011;19317;48.226;11.686;2023-10-19T01:22:17;19.40;;;17.27;;
32964;SDS011;19317;48.226;11.686;2023-10-19T01:27:08;19.20;;;16.77;;
32964;SDS011;19317;48.226;11.686;2023-10-19T01:31:59;20.33;;;18.13;;
32964;SDS011;19317;48.226;11.686;2023-10-19T01:36:50;18.27;;;16.37;;
32964;SDS011;19317;48.226;11.686;2023-10-19T01:41:41;21.30;;;16.80;;
32964;SDS011;19317;48.226;11.686;2023-10-19T01:46:32;20.43;;;18.07;;
32964;SDS011;19317;48.226;11.686;2023-10-19T01:51:24;20.17;;;17.17;;
32964;SDS011;19317;48.226;11.686;2023-10-19T01:56:15;20.70;;;17.43;;
32964;SDS011;19317;48.226;11.686;2023-10-19T02:01:07;21.57;;;18.43;;
32964;SDS011;19317;48.226;11.686;2023-10-19T02:05:58;21.57;;;17.93;;
32964;SDS011;19317;48.226;11.686;2023-10-19T02:10:49;19.80;;;17.70;;
32964;SDS011;19317;48.226;11.686;2023-10-19T02:15:40;23.00;;;18.40;;
32964;SDS011;19317;48.226;11.686;2023-10-19T02:20:31;20.43;;;18.33;;
32964;SDS011;19317;48.226;11.686;2023-10-19T02:25:22;23.20;;;19.57;;
32964;SDS011;19317;48.226;11.686;2023-10-19T02:30:12;22.00;;;18.60;;
32964;SDS011;19317;48.226;11.686;2023-10-19T02:35:03;20.27;;;18.17;;
32964;SDS011;19317;48.226;11.686;2023-10-19T02:39:54;20.87;;;18.60;;
32964;SDS011;19317;48.226;11.686;2023-10-19T02:44:45;22.27;;;18.37;;
32964;SDS011;19317;48.226;11.686;2023-10-19T02:49:36;20.83;;;18.57;;
32964;SDS011;19317;48.226;11.686;2023-10-19T02:54:27;21.57;;;17.63;;
32964;SDS011;19317;48.226;11.686;2023-10-19T02:59:18;21.43;;;19.17;;
32964;SDS011;19317;48.226;11.686;2023-10-19T03:04:10;20.23;;;17.53;;
32964;SDS011;19317;48.226;11.686;2023-10-19T03:09:04;20.87;;;18.70;;
32964;SDS011;19317;48.226;11.686;2023-10-19T03:13:55;20.10;;;18.00;;
32964;SDS011;19317;48.226;11.686;2023-10-19T03:18:46;20.60;;;18.33;;
32964;SDS011;19317;48.226;11.686;2023-10-19T03:23:37;20.50;;;18.33;;
32964;SDS011;19317;48.226;11.686;2023-10-19T03:28:28;24.17;;;20.17;;
32964;SDS011;19317;48.226;11.686;2023-10-19T03:33:19;24.97;;;21.33;;
32964;SDS011;19317;48.226;11.686;2023-10-19T03:38:09;21.63;;;19.33;;
32964;SDS011;19317;48.226;11.686;2023-10-19T03:43:00;21.90;;;17.60;;
32964;SDS011;19317;48.226;11.686;2023-10-19T03:47:51;20.53;;;17.67;;
32964;SDS011;19317;48.226;11.686;2023-10-19T03:52:42;21.47;;;16.93;;
32964;SDS011;19317;48.226;11.686;2023-10-19T03:57:33;17.83;;;15.93;;
32964;SDS011;19317;48.226;11.686;2023-10-19T04:02:27;19.30;;;15.73;;
32964;SDS011;19317;48.226;11.686;2023-10-19T04:07:18;18.47;;;16.57;;
32964;SDS011;19317;48.226;11.686;2023-10-19T04:12:09;18.20;;;16.23;;
32964;SDS011;19317;48.226;11.686;2023-10-19T04:17:00;18.47;;;16.47;;
32964;SDS011;19317;48.226;11.686;2023-10-19T04:21:51;18.63;;;16.13;;
32964;SDS011;19317;48.226;11.686;2023-10-19T04:26:42;19.70;;;16.50;;
32964;SDS011;19317;48.226;11.686;2023-10-19T04:31:33;20.27;;;17.10;;
32964;SDS011;19317;48.226;11.686;2023-10-19T04:36:23;18.47;;;16.40;;
32964;SDS011;19317;48.226;11.686;2023-10-19T04:41:14;20.93;;;16.60;;
32964;SDS011;19317;48.226;11.686;2023-10-19T04:46:09;17.67;;;15.80;;
32964;SDS011;19317;48.226;11.686;2023-10-19T04:51:00;18.40;;;15.93;;
32964;SDS011;19317;48.226;11.686;2023-10-19T04:55:51;19.03;;;16.73;;
32964;SDS011;19317;48.226;11.686;2023-10-19T05:00:42;19.53;;;17.43;;
32964;SDS011;19317;48.226;11.686;2023-10-19T05:05:33;19.13;;;17.03;;
32964;SDS011;19317;48.226;11.686;2023-10-19T05:10:24;17.80;;;15.70;;
32964;SDS011;19317;48.226;11.686;2023-10-19T05:15:15;16.80;;;15.03;;
32964;SDS011;19317;48.226;11.686;2023-10-19T05:20:07;17.80;;;14.80;;
32964;SDS011;19317;48.226;11.686;2023-10-19T05:24:58;17.90;;;16.00;;
32964;SDS011;19317;48.226;11.686;2023-10-19T05:29:49;17.17;;;15.33;;
32964;SDS011;19317;48.226;11.686;2023-10-19T05:34:40;18.87;;;15.73;;
32964;SDS011;19317;48.226;11.686;2023-10-19T05:39:31;16.43;;;14.73;;
32964;SDS011;19317;48.226;11.686;2023-10-19T05:44:22;18.90;;;15.90;;
32964;SDS011;19317;48.226;11.686;2023-10-19T05:49:13;18.03;;;16.13;;
32964;SDS011;19317;48.226;11.686;2023-10-19T05:54:04;18.93;;;16.73;;
32964;SDS011;19317;48.226;11.686;2023-10-19T05:58:55;18.37;;;16.40;;
32964;SDS011;19317;48.226;11.686;2023-10-19T06:03:45;18.63;;;15.63;;
32964;SDS011;19317;48.226;11.686;2023-10-19T06:08:36;19.37;;;15.23;;
32964;SDS011;19317;48.226;11.686;2023-10-19T06:13:27;17.47;;;15.13;;
32964;SDS011;19317;48.226;11.686;2023-10-19T06:18:18;18.70;;;15.07;;
32964;SDS011;19317;48.226;11.686;2023-10-19T06:23:09;17.43;;;14.60;;
32964;SDS011;19317;48.226;11.686;2023-10-19T06:28:00;19.40;;;14.90;;
32964;SDS011;19317;48.226;11.686;2023-10-19T06:32:52;17.53;;;14.10;;
32964;SDS011;19317;48.226;11.686;2023-10-19T06:37:43;24.30;;;19.83;;
32964;SDS011;19317;48.226;11.686;2023-10-19T06:42:34;20.50;;;17.40;;
32964;SDS011;19317;48.226;11.686;2023-10-19T06:47:25;16.70;;;14.43;;
32964;SDS011;19317;48.226;11.686;2023-10-19T06:52:16;17.67;;;14.20;;
32964;SDS011;19317;48.226;11.686;2023-10-19T06:57:07;17.83;;;14.27;;
32964;SDS011;19317;48.226;11.686;2023-10-19T07:01:58;15.73;;;12.60;;
32964;SDS011;19317;48.226;11.686;2023-10-19T07:06:49;16.33;;;13.07;;
32964;SDS011;19317;48.226;11.686;2023-10-19T07:11:40;14.80;;;13.13;;
32964;SDS011;19317;48.226;11.686;2023-10-19T07:16:30;16.30;;;13.13;;
32964;SDS011;19317;48.226;11.686;2023-10-19T07:21:21;15.87;;;12.20;;
32964;SDS011;19317;48.226;11.686;2023-10-19T07:26:12;15.10;;;12.53;;
32964;SDS011;19317;48.226;11.686;2023-10-19T07:31:03;12.83;;;11.53;;
32964;SDS011;19317;48.226;11.686;2023-10-19T07:35:54;15.20;;;12.00;;
32964;SDS011;19317;48.226;11.686;2023-10-19T07:40:45;14.83;;;11.30;;
32964;SDS011;19317;48.226;11.686;2023-10-19T07:45:37;14.00;;;11.10;;
32964;SDS011;19317;48.226;11.686;2023-10-19T07:50:28;12.67;;;10.90;;
32964;SDS011;19317;48.226;11.686;2023-10-19T07:55:20;12.27;;;10.87;;
32964;SDS011;19317;48.226;11.686;2023-10-19T08:00:11;13.00;;;10.53;;
32964;SDS011;19317;48.226;11.686;2023-10-19T08:05:02;11.60;;;10.40;;
32964;SDS011;19317;48.226;11.686;2023-10-19T08:09:53;11.97;;;10.00;;
32964;SDS011;19317;48.226;11.686;2023-10-19T08:14:44;14.00;;;10.47;;
32964;SDS011;19317;48.226;11.686;2023-10-19T08:19:35;10.77;;;9.60;;
32964;SDS011;19317;48.226;11.686;2023-10-19T08:24:26;15.13;;;10.33;;
32964;SDS011;19317;48.226;11.686;2023-10-19T08:29:17;13.90;;;10.03;;
32964;SDS011;19317;48.226;11.686;2023-10-19T08:34:08;11.33;;;10.13;;
32964;SDS011;19317;48.226;11.686;2023-10-19T08:38:59;12.63;;;9.97;;
32964;SDS011;19317;48.226;11.686;2023-10-19T08:43:50;11.63;;;10.37;;
32964;SDS011;19317;48.226;11.686;2023-10-19T08:48:41;12.50;;;10.13;;
32964;SDS011;19317;48.226;11.686;2023-10-19T08:53:32;12.53;;;11.23;;
32964;SDS011;19317;48.226;11.686;2023-10-19T08:58:23;14.70;;;12.87;;
32964;SDS011;19317;48.226;11.686;2023-10-19T09:03:14;18.50;;;15.40;;
32964;SDS011;19317;48.226;11.686;2023-10-19T09:08:05;19.80;;;14.97;;
32964;SDS011;19317;48.226;11.686;2023-10-19T09:12:59;21.70;;;16.10;;
32964;SDS011;19317;48.226;11.686;2023-10-19T09:17:50;19.57;;;16.27;;
32964;SDS011;19317;48.226;11.686;2023-10-19T09:22:41;23.90;;;18.17;;
32964;SDS011;19317;48.226;11.686;2023-10-19T09:27:32;23.47;;;15.77;;
32964;SDS011;19317;48.226;11.686;2023-10-19T09:32:23;20.53;;;15.90;;
32964;SDS011;19317;48.226;11.686;2023-10-19T09:37:14;21.17;;;15.73;;
32964;SDS011;19317;48.226;11.686;2023-10-19T09:42:07;21.53;;;16.30;;
32964;SDS011;19317;48.226;11.686;2023-10-19T09:46:58;23.50;;;17.97;;
32964;SDS011;19317;48.226;11.686;2023-10-19T09:51:50;21.87;;;16.77;;
32964;SDS011;19317;48.226;11.686;2023-10-19T09:56:43;22.50;;;16.97;;
32964;SDS011;19317;48.226;11.686;2023-10-19T10:11:40;17.37;;;15.17;;
32964;SDS011;19317;48.226;11.686;2023-10-19T10:16:33;17.83;;;14.37;;
32964;SDS011;19317;48.226;11.686;2023-10-19T10:21:24;18.23;;;14.63;;
32964;SDS011;19317;48.226;11.686;2023-10-19T10:26:16;18.70;;;13.67;;
32964;SDS011;19317;48.226;11.686;2023-10-19T10:31:08;17.27;;;13.90;;
32964;SDS011;19317;48.226;11.686;2023-10-19T10:35:59;15.47;;;12.80;;
32964;SDS011;19317;48.226;11.686;2023-10-19T10:40:50;15.20;;;12.33;;
32964;SDS011;19317;48.226;11.686;2023-10-19T10:45:41;15.17;;;12.10;;
32964;SDS011;19317;48.226;11.686;2023-10-19T10:50:32;13.27;;;11.90;;
32964;SDS011;19317;48.226;11.686;2023-10-19T10:55:23;15.20;;;11.93;;
32964;SDS011;19317;48.226;11.686;2023-10-19T11:00:14;18.67;;;16.57;;
32964;SDS011;19317;48.226;11.686;2023-10-19T11:05:05;15.03;;;12.57;;
32964;SDS011;19317;48.226;11.686;2023-10-19T11:09:56;18.67;;;16.67;;
32964;SDS011;19317;48.226;11.686;2023-10-19T11:14:54;16.40;;;13.03;;
32964;SDS011;19317;48.226;11.686;2023-10-19T11:19:45;13.17;;;11.63;;
32964;SDS011;19317;48.226;11.686;2023-10-19T11:24:36;12.80;;;11.33;;
32964;SDS011;19317;48.226;11.686;2023-10-19T11:29:27;12.93;;;11.47;;
32964;SDS011;19317;48.226;11.686;2023-10-19T11:34:17;13.10;;;11.17;;
32964;SDS011;19317;48.226;11.686;2023-10-19T11:39:08;12.60;;;11.07;;
32964;SDS011;19317;48.226;11.686;2023-10-19T11:43:59;12.10;;;10.90;;
32964;SDS011;19317;48.226;11.686;2023-10-19T11:48:50;11.87;;;10.67;;
32964;SDS011;19317;48.226;11.686;2023-10-19T11:53:41;11.33;;;10.10;;
32964;SDS011;19317;48.226;11.686;2023-10-19T11:58:33;10.67;;;9.43;;
32964;SDS011;19317;48.226;11.686;2023-10-19T12:03:24;10.83;;;9.73;;
32964;SDS011;19317;48.226;11.686;2023-10-19T12:08:15;12.00;;;10.10;;
32964;SDS011;19317;48.226;11.686;2023-10-19T12:13:06;13.87;;;10.47;;
32964;SDS011;19317;48.226;11.686;2023-10-19T12:17:57;11.33;;;10.20;;
32964;SDS011;19317;48.226;11.686;2023-10-19T12:22:48;11.50;;;10.30;;
32964;SDS011;19317;48.226;11.686;2023-10-19T12:27:39;12.27;;;10.00;;
32964;SDS011;19317;48.226;11.686;2023-10-19T12:32:30;10.87;;;8.90;;
32964;SDS011;19317;48.226;11.686;2023-10-19T12:37:20;12.80;;;9.77;;
32964;SDS011;19317;48.226;11.686;2023-10-19T12:42:11;9.93;;;9.03;;
32964;SDS011;19317;48.226;11.686;2023-10-19T12:47:02;10.30;;;9.30;;
32964;SDS011;19317;48.226;11.686;2023-10-19T12:51:53;11.20;;;9.93;;
32964;SDS011;19317;48.226;11.686;2023-10-19T12:56:44;10.90;;;9.90;;
32964;SDS011;19317;48.226;11.686;2023-10-19T13:01:35;10.43;;;9.37;;
32964;SDS011;19317;48.226;11.686;2023-10-19T13:06:26;11.17;;;9.20;;
32964;SDS011;19317;48.226;11.686;2023-10-19T13:11:17;9.60;;;8.70;;
32964;SDS011;19317;48.226;11.686;2023-10-19T13:16:08;11.60;;;8.93;;
32964;SDS011;19317;48.226;11.686;2023-10-19T13:20:59;10.10;;;9.20;;
32964;SDS011;19317;48.226;11.686;2023-10-19T13:25:50;8.70;;;7.80;;
32964;SDS011;19317;48.226;11.686;2023-10-19T13:30:42;8.70;;;7.80;;
32964;SDS011;19317;48.226;11.686;2023-10-19T13:35:33;9.30;;;7.60;;
32964;SDS011;19317;48.226;11.686;2023-10-19T13:40:26;9.53;;;8.53;;
32964;SDS011;19317;48.226;11.686;2023-10-19T13:45:17;10.90;;;8.30;;
32964;SDS011;19317;48.226;11.686;2023-10-19T13:50:08;9.40;;;8.13;;
32964;SDS011;19317;48.226;11.686;2023-10-19T13:54:59;10.60;;;8.73;;
32964;SDS011;19317;48.226;11.686;2023-10-19T13:59:49;11.07;;;8.73;;
32964;SDS011;19317;48.226;11.686;2023-10-19T14:04:40;11.27;;;9.10;;
32964;SDS011;19317;48.226;11.686;2023-10-19T14:09:31;12.20;;;10.20;;
32964;SDS011;19317;48.226;11.686;2023-10-19T14:14:22;13.77;;;12.50;;
32964;SDS011;19317;48.226;11.686;2023-10-19T14:19:13;13.57;;;12.27;;
32964;SDS011;19317;48.226;11.686;2023-10-19T14:24:04;12.83;;;11.63;;
32964;SDS011;19317;48.226;11.686;2023-10-19T14:28:55;13.10;;;11.73;;
32964;SDS011;19317;48.226;11.686;2023-10-19T14:33:46;12.37;;;11.07;;
32964;SDS011;19317;48.226;11.686;2023-10-19T14:38:37;13.33;;;11.97;;
32964;SDS011;19317;48.226;11.686;2023-10-19T14:43:28;13.53;;;12.17;;
32964;SDS011;19317;48.226;11.686;2023-10-19T14:48:18;14.93;;;12.77;;
32964;SDS011;19317;48.226;11.686;2023-10-19T14:53:09;15.43;;;13.83;;
32964;SDS011;19317;48.226;11.686;2023-10-19T14:58:00;17.27;;;14.40;;
32964;SDS011;19317;48.226;11.686;2023-10-19T15:02:52;23.63;;;21.13;;
32964;SDS011;19317;48.226;11.686;2023-10-19T15:07:44;16.37;;;14.73;;
32964;SDS011;19317;48.226;11.686;2023-10-19T15:12:35;16.17;;;14.67;;
32964;SDS011;19317;48.226;11.686;2023-10-19T15:17:26;15.90;;;14.30;;
32964;SDS011;19317;48.226;11.686;2023-10-19T15:22:17;15.50;;;14.00;;
32964;SDS011;19317;48.226;11.686;2023-10-19T15:27:08;16.00;;;14.27;;
32964;SDS011;19317;48.226;11.686;2023-10-19T15:31:59;16.83;;;15.13;;
32964;SDS011;19317;48.226;11.686;2023-10-19T15:36:50;17.67;;;15.33;;
32964;SDS011;19317;48.226;11.686;2023-10-19T15:41:41;16.90;;;14.93;;
32964;SDS011;19317;48.226;11.686;2023-10-19T15:46:32;15.90;;;14.33;;
32964;SDS011;19317;48.226;11.686;2023-10-19T15:51:22;17.20;;;15.40;;
32964;SDS011;19317;48.226;11.686;2023-10-19T15:56:13;17.07;;;15.30;;
32964;SDS011;19317;48.226;11.686;2023-10-19T16:01:04;18.00;;;16.20;;
32964;SDS011;19317;48.226;11.686;2023-10-19T16:05:55;21.30;;;18.83;;
32964;SDS011;19317;48.226;11.686;2023-10-19T16:10:46;22.93;;;20.10;;
32964;SDS011;19317;48.226;11.686;2023-10-19T16:15:37;18.70;;;16.90;;
32964;SDS011;19317;48.226;11.686;2023-10-19T16:20:28;20.10;;;18.10;;
32964;SDS011;19317;48.226;11.686;2023-10-19T16:25:19;19.90;;;17.77;;
32964;SDS011;19317;48.226;11.686;2023-10-19T16:30:10;20.20;;;18.00;;
32964;SDS011;19317;48.226;11.686;2023-10-19T16:35:01;21.07;;;18.77;;
32964;SDS011;19317;48.226;11.686;2023-10-19T16:39:52;22.63;;;19.17;;
32964;SDS011;19317;48.226;11.686;2023-10-19T16:44:42;21.23;;;19.13;;
32964;SDS011;19317;48.226;11.686;2023-10-19T16:49:33;20.97;;;18.80;;
32964;SDS011;19317;48.226;11.686;2023-10-19T16:54:24;22.50;;;18.60;;
32964;SDS011;19317;48.226;11.686;2023-10-19T16:59:15;21.13;;;18.97;;
32964;SDS011;19317;48.226;11.686;2023-10-19T17:04:06;21.07;;;18.87;;
32964;SDS011;19317;48.226;11.686;2023-10-19T17:09:00;21.43;;;19.23;;
32964;SDS011;19317;48.226;11.686;2023-10-19T17:13:51;20.60;;;18.47;;
32964;SDS011;19317;48.226;11.686;2023-10-19T17:18:42;23.73;;;19.13;;
32964;SDS011;19317;48.226;11.686;2023-10-19T17:23:33;22.17;;;19.83;;
32964;SDS011;19317;48.226;11.686;2023-10-19T17:28:24;21.87;;;19.57;;
32964;SDS011;19317;48.226;11.686;2023-10-19T17:33:15;26.63;;;23.47;;
32964;SDS011;19317;48.226;11.686;2023-10-19T17:38:06;24.83;;;21.73;;
32964;SDS011;19317;48.226;11.686;2023-10-19T17:42:56;22.00;;;19.90;;
32964;SDS011;19317;48.226;11.686;2023-10-19T17:47:47;21.50;;;19.33;;
32964;SDS011;19317;48.226;11.686;2023-10-19T17:52:38;20.43;;;18.43;;
32964;SDS011;19317;48.226;11.686;2023-10-19T17:57:29;22.03;;;19.73;;
32964;SDS011;19317;48.226;11.686;2023-10-19T18:02:20;22.03;;;19.90;;
32964;SDS011;19317;48.226;11.686;2023-10-19T18:07:11;23.53;;;20.23;;
32964;SDS011;19317;48.226;11.686;2023-10-19T18:12:02;19.97;;;17.93;;
32964;SDS011;19317;48.226;11.686;2023-10-19T18:16:53;18.43;;;16.70;;
32964;SDS011;19317;48.226;11.686;2023-10-19T18:21:44;19.83;;;17.77;;
32964;SDS011;19317;48.226;11.686;2023-10-19T18:26:35;19.90;;;17.90;;
32964;SDS011;19317;48.226;11.686;2023-10-19T18:31:26;15.97;;;13.93;;
32964;SDS011;19317;48.226;11.686;2023-10-19T18:36:17;15.27;;;13.87;;
32964;SDS011;19317;48.226;11.686;2023-10-19T18:41:07;17.20;;;15.40;;
32964;SDS011;19317;48.226;11.686;2023-10-19T18:45:59;25.00;;;22.50;;
32964;SDS011;19317;48.226;11.686;2023-10-19T18:56:10;16.27;;;14.77;;
32964;SDS011;19317;48.226;11.686;2023-10-19T19:01:01;16.10;;;14.50;;
32964;SDS011;19317;48.226;11.686;2023-10-19T19:05:59;15.57;;;14.07;;
32964;SDS011;19317;48.226;11.686;2023-10-19T19:10:50;16.10;;;14.50;;
32964;SDS011;19317;48.226;11.686;2023-10-19T19:15:41;19.53;;;17.53;;
32964;SDS011;19317;48.226;11.686;2023-10-19T19:20:32;16.43;;;14.83;;
32964;SDS011;19317;48.226;11.686;2023-10-19T19:25:23;16.00;;;14.43;;
32964;SDS011;19317;48.226;11.686;2023-10-19T19:30:13;17.40;;;15.70;;
32964;SDS011;19317;48.226;11.686;2023-10-19T19:35:04;16.20;;;14.60;;
32964;SDS011;19317;48.226;11.686;2023-10-19T19:39:55;17.80;;;15.33;;
32964;SDS011;19317;48.226;11.686;2023-10-19T19:44:46;17.90;;;15.70;;
32964;SDS011;19317;48.226;11.686;2023-10-19T19:49:37;17.23;;;15.53;;
32964;SDS011;19317;48.226;11.686;2023-10-19T19:54:28;18.93;;;15.77;;
32964;SDS011;19317;48.226;11.686;2023-10-19T19:59:19;18.77;;;16.77;;
32964;SDS011;19317;48.226;11.686;2023-10-19T20:04:10;18.97;;;16.90;;
32964;SDS011;19317;48.226;11.686;2023-10-19T20:09:00;17.97;;;16.07;;
32964;SDS011;19317;48.226;11.686;2023-10-19T20:13:51;18.57;;;16.57;;
32964;SDS011;19317;48.226;11.686;2023-10-19T20:18:42;17.33;;;15.63;;
32964;SDS011;19317;48.226;11.686;2023-10-19T20:23:33;18.03;;;16.33;;
32964;SDS011;19317;48.226;11.686;2023-10-19T20:28:24;17.47;;;15.83;;
32964;SDS011;19317;48.226;11.686;2023-10-19T20:33:15;18.47;;;16.67;;
32964;SDS011;19317;48.226;11.686;2023-10-19T20:38:06;16.93;;;15.33;;
32964;SDS011;19317;48.226;11.686;2023-10-19T20:42:56;16.73;;;15.03;;
32964;SDS011;19317;48.226;11.686;2023-10-19T20:47:51;18.53;;;15.33;;
32964;SDS011;19317;48.226;11.686;2023-10-19T20:52:42;17.23;;;15.33;;
32964;SDS011;19317;48.226;11.686;2023-10-19T20:57:33;16.40;;;14.80;;
32964;SDS011;19317;48.226;11.686;2023-10-19T21:02:23;17.00;;;14.73;;
32964;SDS011;19317;48.226;11.686;2023-10-19T21:07:14;17.97;;;14.67;;
32964;SDS011;19317;48.226;11.686;2023-10-19T21:12:05;16.60;;;14.90;;
32964;SDS011;19317;48.226;11.686;2023-10-19T21:16:56;15.97;;;14.47;;
32964;SDS011;19317;48.226;11.686;2023-10-19T21:21:47;16.37;;;14.77;;
32964;SDS011;19317;48.226;11.686;2023-10-19T21:26:38;18.03;;;16.33;;
32964;SDS011;19317;48.226;11.686;2023-10-19T21:31:29;18.20;;;16.13;;
32964;SDS011;19317;48.226;11.686;2023-10-19T21:36:20;18.63;;;16.20;;
32964;SDS011;19317;48.226;11.686;2023-10-19T21:41:10;18.10;;;16.30;;
32964;SDS011;19317;48.226;11.686;2023-10-19T21:46:02;17.13;;;15.37;;
32964;SDS011;19317;48.226;11.686;2023-10-19T21:50:56;18.60;;;16.70;;
32964;SDS011;19317;48.226;11.686;2023-10-19T21:55:47;19.03;;;17.13;;
32964;SDS011;19317;48.226;11.686;2023-10-19T22:00:42;19.70;;;17.90;;
32964;SDS011;19317;48.226;11.686;2023-10-19T22:05:32;20.10;;;18.20;;
32964;SDS011;19317;48.226;11.686;2023-10-19T22:10:23;18.90;;;17.00;;
32964;SDS011;19317;48.226;11.686;2023-10-19T22:15:14;20.53;;;18.53;;
32964;SDS011;19317;48.226;11.686;2023-10-19T22:20:05;19.80;;;17.87;;
32964;SDS011;19317;48.226;11.686;2023-10-19T22:24:57;21.60;;;19.30;;
32964;SDS011;19317;48.226;11.686;2023-10-19T22:29:47;22.47;;;20.07;;
32964;SDS011;19317;48.226;11.686;2023-10-19T22:34:38;22.33;;;20.10;;
32964;SDS011;19317;48.226;11.686;2023-10-19T22:39:29;22.70;;;20.37;;
32964;SDS011;19317;48.226;11.686;2023-10-19T22:44:20;21.97;;;19.67;;
32964;SDS011;19317;48.226;11.686;2023-10-19T22:49:11;21.40;;;19.27;;
32964;SDS011;19317;48.226;11.686;2023-10-19T22:54:02;20.97;;;18.83;;
32964;SDS011;19317;48.226;11.686;2023-10-19T22:58:53;22.10;;;19.33;;
32964;SDS011;19317;48.226;11.686;2023-10-19T23:03:44;21.97;;;19.67;;
32964;SDS011;19317;48.226;11.686;2023-10-19T23:08:35;21.47;;;19.27;;
32964;SDS011;19317;48.226;11.686;2023-10-19T23:13:26;20.50;;;18.43;;
32964;SDS011;19317;48.226;11.686;2023-10-19T23:18:17;20.57;;;18.47;;
32964;SDS011;19317;48.226;11.686;2023-10-19T23:23:07;21.27;;;19.17;;
32964;SDS011;19317;48.226;11.686;2023-10-19T23:27:59;20.97;;;18.80;;
32964;SDS011;19317;48.226;11.686;2023-10-19T23:32:50;22.03;;;19.83;;
32964;SDS011;19317;48.226;11.686;2023-10-19T23:37:41;21.13;;;19.07;;
32964;SDS011;19317;48.226;11.686;2023-10-19T23:42:32;20.60;;;18.53;;
32964;SDS011;19317;48.226;11.686;2023-10-19T23:47:22;21.17;;;19.07;;
32964;SDS011;19317;48.226;11.686;2023-10-19T23:52:13;20.73;;;18.53;;
32964;SDS011;19317;48.226;11.686;2023-10-19T23:57:04;21.37;;;19.27;;
